createdAt,value
2022-08-18T00:02:34.350Z,1002.76
2022-08-18T00:07:38.451Z,1002.84
2022-08-18T00:12:42.579Z,1002.73
2022-08-18T00:17:46.761Z,1002.80
2022-08-18T00:22:51.017Z,1002.84
2022-08-18T00:27:55.061Z,1002.78
2022-08-18T00:32:59.247Z,1002.91
2022-08-18T00:38:03.377Z,1002.84
2022-08-18T00:43:07.551Z,1002.92
2022-08-18T00:48:11.987Z,1002.96
2022-08-18T00:53:15.861Z,1002.87
2022-08-18T00:58:20.017Z,1002.88
2022-08-18T01:03:24.929Z,1002.83
2022-08-18T01:08:29.119Z,1002.74
2022-08-18T01:13:32.505Z,1002.78
2022-08-18T01:18:36.675Z,1002.68
2022-08-18T01:23:40.832Z,1002.60
2022-08-18T01:28:44.971Z,1002.80
2022-08-18T01:33:49.140Z,1002.79
2022-08-18T01:38:53.294Z,1002.63
2022-08-18T01:43:57.484Z,1002.70
2022-08-18T01:49:01.635Z,1002.66
2022-08-18T01:54:03.915Z,1002.75
2022-08-18T01:59:08.064Z,1002.86
2022-08-18T02:04:33.899Z,1002.78
2022-08-18T02:09:16.381Z,1002.81
2022-08-18T02:14:20.556Z,1002.96
2022-08-18T02:19:24.670Z,1002.93
2022-08-18T02:24:28.853Z,1002.84
2022-08-18T02:29:33.027Z,1002.72
2022-08-18T02:34:37.162Z,1002.81
2022-08-18T02:39:41.428Z,1002.85
2022-08-18T02:44:45.489Z,1002.77
2022-08-18T02:49:49.644Z,1002.85
2022-08-18T02:54:53.795Z,1002.85
2022-08-18T02:59:57.992Z,1002.86
2022-08-18T03:05:02.173Z,1002.92
2022-08-18T03:10:32.825Z,1002.76
2022-08-18T03:15:10.474Z,1002.77
2022-08-18T03:20:14.609Z,1002.88
2022-08-18T03:25:18.748Z,1002.88
2022-08-18T03:30:22.958Z,1002.83
2022-08-18T03:35:27.063Z,1002.85
2022-08-18T03:40:31.222Z,1002.70
2022-08-18T03:45:35.382Z,1002.71
2022-08-18T03:50:39.558Z,1002.77
2022-08-18T03:55:43.705Z,1002.76
2022-08-18T04:00:47.871Z,1002.73
2022-08-18T04:05:52.047Z,1002.75
2022-08-18T04:10:56.206Z,1002.70
2022-08-18T04:16:00.355Z,1002.89
2022-08-18T04:21:04.513Z,1002.90
2022-08-18T04:26:08.674Z,1002.94
2022-08-18T04:31:12.837Z,1002.97
2022-08-18T04:36:20.575Z,1002.88
2022-08-18T04:41:21.177Z,1002.96
2022-08-18T04:46:25.306Z,1003.00
2022-08-18T04:52:39.393Z,1003.08
2022-08-18T04:56:33.667Z,1003.20
2022-08-18T05:01:37.873Z,1003.22
2022-08-18T05:06:41.941Z,1003.26
2022-08-18T05:11:46.150Z,1003.36
2022-08-18T05:16:50.260Z,1003.30
2022-08-18T05:21:57.625Z,1003.25
2022-08-18T05:26:58.595Z,1003.25
2022-08-18T05:32:02.747Z,1003.27
2022-08-18T05:37:06.948Z,1003.32
2022-08-18T05:42:11.097Z,1003.41
2022-08-18T05:47:15.231Z,1003.46
2022-08-18T05:52:19.383Z,1003.47
2022-08-18T05:57:23.540Z,1003.54
2022-08-18T06:02:27.701Z,1003.61
2022-08-18T06:07:33.651Z,1003.62
2022-08-18T06:12:37.738Z,1003.62
2022-08-18T06:17:40.191Z,1003.71
2022-08-18T06:22:53.304Z,1003.73
2022-08-18T06:27:48.600Z,1003.83
2022-08-18T06:32:52.654Z,1003.77
2022-08-18T06:37:56.849Z,1003.76
2022-08-18T06:43:02.135Z,1003.79
2022-08-18T06:48:05.133Z,1003.86
2022-08-18T06:53:26.946Z,1003.88
2022-08-18T06:58:13.637Z,1003.91
2022-08-18T07:03:17.656Z,1003.89
2022-08-18T07:08:21.945Z,1003.97
2022-08-18T07:13:25.976Z,1003.96
2022-08-18T07:18:30.152Z,1003.94
2022-08-18T07:23:32.383Z,1003.93
2022-08-18T07:28:36.540Z,1003.81
2022-08-18T07:33:40.714Z,1003.91
2022-08-18T07:38:44.862Z,1003.82
2022-08-18T07:43:48.989Z,1003.82
2022-08-18T07:48:53.141Z,1003.89
2022-08-18T07:53:56.256Z,1003.82
2022-08-18T07:58:59.598Z,1003.88
2022-08-18T08:04:03.760Z,1003.76
2022-08-18T08:09:07.900Z,1003.90
2022-08-18T08:14:12.046Z,1003.74
2022-08-18T08:19:16.239Z,1003.71
2022-08-18T08:24:20.390Z,1003.83
2022-08-18T08:29:24.547Z,1004.06
2022-08-18T08:34:30.717Z,1004.03
2022-08-18T08:39:32.927Z,1004.05
2022-08-18T08:44:57.921Z,1004.04
2022-08-18T08:49:41.218Z,1004.02
2022-08-18T08:54:45.378Z,1004.04
2022-08-18T08:59:49.513Z,1004.08
2022-08-18T09:05:07.545Z,1004.05
2022-08-18T09:09:57.830Z,1004.06
2022-08-18T09:15:01.983Z,1004.06
2022-08-18T09:20:06.132Z,1004.05
2022-08-18T09:25:10.296Z,1004.02
2022-08-18T09:30:14.460Z,1003.91
2022-08-18T09:35:18.599Z,1003.94
2022-08-18T09:45:31.062Z,1003.85
2022-08-18T09:50:31.101Z,1003.87
2022-08-18T09:55:35.273Z,1003.88
2022-08-18T10:00:39.410Z,1004.01
2022-08-18T10:05:43.554Z,1004.07
2022-08-18T10:11:00.177Z,1004.04
2022-08-18T10:15:51.905Z,1004.09
2022-08-18T10:20:56.045Z,1004.09
2022-08-18T10:26:04.393Z,1004.06
2022-08-18T10:36:11.028Z,1003.90
2022-08-18T10:41:15.551Z,1003.88
2022-08-18T10:51:21.359Z,1003.82
2022-08-18T10:56:26.893Z,1003.81
2022-08-18T11:06:33.479Z,1003.74
2022-08-18T11:11:39.834Z,1003.82
2022-08-18T11:16:41.809Z,1003.76
2022-08-18T11:21:45.938Z,1003.65
2022-08-18T11:26:52.517Z,1003.64
2022-08-18T11:31:54.293Z,1003.58
2022-08-18T11:36:58.413Z,1003.72
2022-08-18T11:42:02.711Z,1003.65
2022-08-18T11:47:06.777Z,1003.54
2022-08-18T11:52:10.948Z,1003.52
2022-08-18T11:57:15.044Z,1003.45
2022-08-18T12:02:19.244Z,1003.49
2022-08-18T12:07:23.377Z,1003.48
2022-08-18T12:12:28.147Z,1003.40
2022-08-18T12:17:31.709Z,1003.39
2022-08-18T12:22:35.862Z,1003.29
2022-08-18T12:27:40.018Z,1003.26
2022-08-18T12:32:50.775Z,1003.41
2022-08-18T12:37:59.928Z,1003.42
2022-08-18T12:42:52.663Z,1003.60
2022-08-18T12:47:56.885Z,1003.77
2022-08-18T12:53:00.786Z,1003.74
2022-08-18T12:58:04.986Z,1003.78
2022-08-18T13:03:09.107Z,1003.61
2022-08-18T13:08:13.273Z,1003.37
2022-08-18T13:13:17.429Z,1003.33
2022-08-18T13:18:21.594Z,1003.27
2022-08-18T13:23:25.094Z,1003.37
2022-08-18T13:28:30.217Z,1003.30
2022-08-18T13:33:35.241Z,1003.19
2022-08-18T13:38:36.328Z,1003.07
2022-08-18T13:43:40.658Z,1003.06
2022-08-18T13:48:44.664Z,1002.88
2022-08-18T13:53:59.051Z,1002.86
2022-08-18T13:58:53.715Z,1002.91
2022-08-18T14:03:57.166Z,1002.85
2022-08-18T14:09:01.325Z,1002.80
2022-08-18T14:14:05.477Z,1002.83
2022-08-18T14:19:10.409Z,1002.79
2022-08-18T14:24:14.204Z,1002.79
2022-08-18T14:29:17.919Z,1002.84
2022-08-18T14:34:22.069Z,1002.93
2022-08-18T14:39:26.331Z,1002.93
2022-08-18T14:44:32.590Z,1002.88
2022-08-18T14:49:34.591Z,1002.90
2022-08-18T14:54:38.708Z,1002.99
2022-08-18T14:59:42.907Z,1002.95
2022-08-18T15:04:53.163Z,1002.71
2022-08-18T15:09:51.229Z,1002.71
2022-08-18T15:14:55.754Z,1002.62
2022-08-18T15:20:01.082Z,1002.60
2022-08-18T15:25:03.669Z,1002.65
2022-08-18T15:30:07.829Z,1002.75
2022-08-18T15:35:12.040Z,1002.72
2022-08-18T15:40:21.963Z,1002.80
2022-08-18T15:45:20.336Z,1002.92
2022-08-18T15:50:25.826Z,1002.86
2022-08-18T15:55:28.594Z,1002.76
2022-08-18T16:00:32.766Z,1002.89
2022-08-18T16:05:36.953Z,1002.85
2022-08-18T16:10:41.100Z,1002.71
2022-08-18T16:15:45.334Z,1002.77
2022-08-18T16:20:50.629Z,1002.71
2022-08-18T16:25:53.580Z,1002.69
2022-08-18T16:30:57.722Z,1002.70
2022-08-18T16:36:01.919Z,1002.59
2022-08-18T16:41:06.295Z,1002.54
2022-08-18T16:46:10.250Z,1002.65
2022-08-18T16:51:14.395Z,1002.55
2022-08-18T16:56:18.525Z,1002.43
2022-08-18T17:01:22.723Z,1002.39
2022-08-18T17:06:26.873Z,1002.27
2022-08-18T17:11:31.013Z,1002.27
2022-08-18T17:16:35.181Z,1002.28
2022-08-18T17:21:39.323Z,1002.23
2022-08-18T17:26:43.501Z,1002.19
2022-08-18T17:31:47.649Z,1002.31
2022-08-18T17:36:52.795Z,1002.23
2022-08-18T17:41:55.984Z,1002.26
2022-08-18T17:47:00.168Z,1002.34
2022-08-18T17:52:04.286Z,1002.30
2022-08-18T17:57:08.470Z,1002.31
2022-08-18T18:02:16.658Z,1002.31
2022-08-18T18:07:16.876Z,1002.32
2022-08-18T18:12:20.934Z,1002.26
2022-08-18T18:17:25.109Z,1002.28
2022-08-18T18:22:29.220Z,1002.08
2022-08-18T18:27:33.430Z,1002.00
2022-08-18T18:32:37.537Z,1002.04
2022-08-18T18:37:41.735Z,1002.08
2022-08-18T18:42:45.931Z,1002.04
2022-08-18T18:47:50.056Z,1002.02
2022-08-18T18:52:52.481Z,1002.11
2022-08-18T18:57:56.468Z,1002.06
2022-08-18T19:03:00.628Z,1002.10
2022-08-18T19:08:04.822Z,1002.13
2022-08-18T19:13:08.949Z,1002.12
2022-08-18T19:18:13.123Z,1002.13
2022-08-18T19:23:34.215Z,1002.20
2022-08-18T19:28:21.418Z,1002.23
2022-08-18T19:33:26.151Z,1002.35
2022-08-18T19:38:29.738Z,1002.42
2022-08-18T19:43:33.898Z,1002.38
2022-08-18T19:48:38.044Z,1002.30
2022-08-18T19:53:42.221Z,1002.28
2022-08-18T19:58:58.862Z,1002.25
2022-08-18T20:03:50.539Z,1002.30
2022-08-18T20:08:54.702Z,1002.40
2022-08-18T20:13:58.858Z,1002.45
2022-08-18T20:19:15.985Z,1002.53
2022-08-18T20:24:07.173Z,1002.46
2022-08-18T20:29:11.339Z,1002.58
2022-08-18T20:34:15.501Z,1002.61
2022-08-18T20:39:19.660Z,1002.65
2022-08-18T20:44:29.429Z,1002.64
2022-08-18T20:49:27.991Z,1002.72
2022-08-18T20:54:32.115Z,1002.77
2022-08-18T20:59:36.277Z,1002.75
2022-08-18T21:04:43.045Z,1002.72
2022-08-18T21:09:44.586Z,1002.75
2022-08-18T21:19:52.921Z,1002.84
2022-08-18T21:24:57.073Z,1002.88
2022-08-18T21:30:01.255Z,1002.78
2022-08-18T21:35:05.446Z,1002.79
2022-08-18T21:40:09.580Z,1002.77
2022-08-18T21:45:13.748Z,1002.80
2022-08-18T21:50:17.901Z,1002.92
2022-08-18T21:55:22.021Z,1003.06
2022-08-18T22:00:26.240Z,1003.09
2022-08-18T22:05:30.342Z,1003.14
2022-08-18T22:10:34.532Z,1003.24
2022-08-18T22:15:38.663Z,1003.21
2022-08-18T22:20:42.823Z,1003.34
2022-08-18T22:25:47.010Z,1003.24
2022-08-18T22:30:51.145Z,1003.32
2022-08-18T22:35:55.329Z,1003.25
2022-08-18T22:40:59.470Z,1003.25
2022-08-18T22:46:03.613Z,1003.34
2022-08-18T22:51:07.810Z,1003.33
2022-08-18T22:56:11.935Z,1003.32
2022-08-18T23:01:16.100Z,1003.31
2022-08-18T23:06:20.269Z,1003.29
2022-08-18T23:11:24.421Z,1003.35
2022-08-18T23:16:31.256Z,1003.38
2022-08-18T23:21:33.795Z,1003.33
2022-08-18T23:26:36.916Z,1003.37
2022-08-18T23:31:41.042Z,1003.38
2022-08-18T23:36:45.729Z,1003.39
2022-08-18T23:41:49.407Z,1003.48
2022-08-18T23:46:53.545Z,1003.58
2022-08-18T23:51:57.732Z,1003.54
2022-08-18T23:57:01.859Z,1003.42
